1969 Tropical Cyclone (Gale) NOT_NAMED (1969091S15160)


IBTrACS version v04r00. Visit IBTrACS website for data access.
Please direct all questions to the IBTrACS Q and A forum

Storm track - Intensity - Wind Radii - Intensity Data - Source Data - All data

Summary Information

Storm ID 1969091S15160
Start Mar 31 23Z
Max Intensity 40 kt (Apr 1 18Z)
End Apr 3 23Z
ATCF IDs ,SH321969
Track status Best track data.

Storm track plot

Map of storm track

Intensity plots

Map of storm track

Radial wind information

No radial wind information for this storm


Position and Intensity Table

BASIN ISO_TIME_________ NATURE LAT LON USA WIND DS824 WIND TD9636 WIND NEUMANN WIND
degrees north degrees east kts kts kts kts
SP 1969-03-31 23:00:00 NR -14.70 160.20 33
SP 1969-04-01 00:00:00 TS -14.78 160.32 30 30 32
SP 03:00:00 TS -14.98 160.75 30 30 32
SP 06:00:00 TS -15.21 161.28 30 30 31 30
SP 09:00:00 TS -15.43 161.80 30 30 30 32
SP 11:00:00 TS -15.58 162.18 30 30 30 34
SP 12:00:00 TS -15.67 162.39 30 30 30 35
SP 15:00:00 TS -15.88 162.90 32 32 33 37
SP 18:00:00 TS -16.10 163.40 35 35 35 40
SP 21:00:00 TS -16.34 163.89 37 37 38 40
SP 23:00:00 TS -16.51 164.19 39 39 40 40
SP 1969-04-02 00:00:00 TS -16.60 164.34 40 40 40 40
SP 03:00:00 TS -16.86 164.72 40 40 40 40
SP 06:00:00 TS -17.13 165.06 40 40 40 40
SP 09:00:00 TS -17.41 165.41 40 40 40 35
SP 11:00:00 TS -17.60 165.62 40 40 40 31
SP 12:00:00 TS -17.70 165.73 40 40 38 30
SP 15:00:00 TS -18.02 166.03 35 35 33 25
SP 18:00:00 TS -18.33 166.27 30 30 28 20
SP 21:00:00 TS -18.61 166.44 25 25 23 20
SP 23:00:00 TS -18.79 166.51 21 21 20 20
SP 1969-04-03 00:00:00 TS -18.87 166.54 20 20 20 20
SP 03:00:00 TS -19.09 166.59 22 22 21 22
SP 06:00:00 TS -19.31 166.61 25 25 22 25
SP 09:00:00 TS -19.55 166.61 25 25 24 20
SP 11:00:00 TS -19.71 166.60 25 25 25 16
SP 12:00:00 TS -19.79 166.60 25 25 23 15
SP 15:00:00 TS -20.02 166.59 22 22 20 12
SP 18:00:00 TS -20.25 166.59 20 20 16 10
SP 21:00:00 NR -20.43 166.59 12
SP 23:00:00 NR -20.60 166.60 10

Source Information

Agency Information
USA bsh321969.txt
TOKYO
CMA
HKO
NEWDELHI
REUNION
BOM
NADI
WELLINGTON
DS824 s_hem.dat:1100:32P
TD9636 cons_worldwide_trop_cyclone_18710101-19891231-006:Line=8244
TD9635
NEUMANN tracks.sh:Storm=249:HSK2669:BSH3269:JTWC
MLC

All available IBTrACS Data

SEASON BASIN SUBBASIN ISO_TIME_________ NATURE LAT LON DIST2LAND LANDFALL IFLAG USA AGENCY USA ATCF_ID USA LAT USA LON USA WIND USA SSHS DS824 LAT DS824 LON DS824 STAGE DS824 WIND TD9636 LAT TD9636 LON TD9636 STAGE TD9636 WIND NEUMANN LAT NEUMANN LON NEUMANN CLASS NEUMANN WIND STORM SPEED STORM DIR
Year degrees north degrees east km km degrees north degrees east kts 1 degrees north degrees east kts degrees north degrees east kts degrees north degrees east kts kts degrees
1969 SP MM 1969-03-31 23:00:00 NR -14.70 160.20 469 466 __________O___ -1 -14.70 160.20 1 33 9 126
1969 SP MM 1969-04-01 00:00:00 TS -14.78 160.32 476 472 O________OP___ jtwc_sh SH321969 -14.80 160.30 30 -1 -14.80 160.30 TC 30 -14.77 160.34 1 32 9 118
1969 SP MM 03:00:00 TS -14.98 160.75 482 480 P________PP___ SH321969 -15.00 160.74 30 -1 -15.00 160.74 TC 30 -14.96 160.77 1 32 10 115
1969 SP MM 06:00:00 TS -15.21 161.28 495 494 O________OP_O_ jtwc_sh SH321969 -15.20 161.20 30 -1 -15.20 161.20 TC 30 -15.16 161.22 1 31 -15.50 162.00 TC 30 11 114
1969 SP MM 09:00:00 TS -15.43 161.80 509 478 P________PP_P_ SH321969 -15.40 161.69 30 -1 -15.40 161.69 TC 30 -15.36 161.68 1 30 -15.69 162.49 TC 32 11 113
1969 SP MM 11:00:00 TS -15.58 162.18 470 451 P________PO_P_ SH321969 -15.53 162.03 30 -1 -15.53 162.03 TC 30 -15.50 162.00 1 30 -15.83 162.83 TC 34 12 113
1969 SP MM 12:00:00 TS -15.67 162.39 451 400 O________OP_O_ jtwc_sh SH321969 -15.60 162.20 30 -1 -15.60 162.20 TC 30 -15.57 162.17 1 30 -15.90 163.00 TC 35 11 113
1969 SP MM 15:00:00 TS -15.88 162.90 400 351 P________PP_P_ SH321969 -15.79 162.70 32 -1 -15.79 162.70 TC 32 -15.78 162.68 1 33 -16.14 163.52 TC 37 11 114
1969 SP MM 18:00:00 TS -16.10 163.40 351 305 O________OP_O_ jtwc_sh SH321969 -16.00 163.20 35 0 -16.00 163.20 TC 35 -16.00 163.19 1 35 -16.40 164.00 TC 40 11 116
1969 SP MM 21:00:00 TS -16.34 163.89 305 284 P________PP_P_ SH321969 -16.24 163.72 37 0 -16.24 163.72 TC 37 -16.24 163.69 1 38 -16.64 164.42 TC 40 10 118
1969 SP MM 23:00:00 TS -16.51 164.19 284 280 P________PO_P_ SH321969 -16.41 164.05 39 0 -16.41 164.05 TC 39 -16.40 164.00 2 40 -16.81 164.68 TC 40 10 121
1969 SP MM 1969-04-02 00:00:00 TS -16.60 164.34 280 255 O________OP_O_ jtwc_sh SH321969 -16.50 164.20 40 0 -16.50 164.20 TC 40 -16.48 164.15 2 40 -16.90 164.80 TC 40 9 125
1969 SP MM 03:00:00 TS -16.86 164.72 261 247 P________PP_P_ SH321969 -16.74 164.57 40 0 -16.74 164.57 TC 40 -16.75 164.57 2 40 -17.20 165.17 TC 40 9 128
1969 SP MM 06:00:00 TS -17.13 165.06 239 232 O________OP_O_ jtwc_sh SH321969 -17.00 164.90 40 0 -17.00 164.90 TC 40 -17.02 164.95 2 40 -17.50 165.50 TC 40 9 130
1969 SP MM 09:00:00 TS -17.41 165.41 232 221 P________PP_P_ SH321969 -17.29 165.26 40 0 -17.29 165.26 TC 40 -17.31 165.29 2 40 -17.74 165.82 TC 35 9 131
1969 SP MM 11:00:00 TS -17.60 165.62 227 218 P________PO_P_ SH321969 -17.50 165.49 40 0 -17.50 165.49 TC 40 -17.50 165.50 2 40 -17.91 166.01 TC 31 8 134
1969 SP MM 12:00:00 TS -17.70 165.73 225 215 O________OP_O_ jtwc_sh SH321969 -17.60 165.60 40 0 -17.60 165.60 TC 40 -17.60 165.61 2 38 -18.00 166.10 TC 30 9 137
1969 SP MM 15:00:00 TS -18.02 166.03 223 223 P________PP_P_ SH321969 -17.90 165.93 35 0 -17.90 165.93 TC 35 -17.91 165.92 2 33 -18.36 166.34 TC 25 8 141
1969 SP MM 18:00:00 TS -18.33 166.27 228 228 O________OP_O_ jtwc_sh SH321969 -18.20 166.20 30 -1 -18.20 166.20 TC 30 -18.22 166.19 2 28 -18.70 166.50 TC 20 7 147
1969 SP MM 21:00:00 TS -18.61 166.44 252 247 P________PP_P_ SH321969 -18.51 166.39 25 -1 -18.51 166.39 TC 25 -18.51 166.40 2 23 -18.91 166.58 TC 20 6 154
1969 SP MM 23:00:00 TS -18.79 166.51 261 252 P________PO_P_ SH321969 -18.71 166.47 21 -1 -18.71 166.47 TC 21 -18.70 166.50 1 20 -19.04 166.60 TC 20 5 161
1969 SP MM 1969-04-03 00:00:00 TS -18.87 166.54 252 239 O________OP_O_ jtwc_sh SH321969 -18.80 166.50 20 -1 -18.80 166.50 TC 20 -18.78 166.54 1 20 -19.10 166.60 TC 20 5 166
1969 SP MM 03:00:00 TS -19.09 166.59 239 222 P________PP_P_ SH321969 -19.01 166.57 22 -1 -19.01 166.57 TC 22 -19.02 166.61 1 21 -19.34 166.61 TC 22 4 171
1969 SP MM 06:00:00 TS -19.31 166.61 222 206 O________OP_O_ jtwc_sh SH321969 -19.20 166.60 25 -1 -19.20 166.60 TC 25 -19.24 166.63 1 22 -19.60 166.60 TC 25 5 0
1969 SP MM 09:00:00 TS -19.55 166.61 206 190 P________PP_P_ SH321969 -19.44 166.61 25 -1 -19.44 166.61 TC 25 -19.45 166.61 1 24 -19.85 166.60 TC 20 5 0
1969 SP MM 11:00:00 TS -19.71 166.60 190 183 P________PO_P_ SH321969 -19.61 166.60 25 -1 -19.61 166.60 TC 25 -19.60 166.60 1 25 -20.02 166.60 TC 16 5 0
1969 SP MM 12:00:00 TS -19.79 166.60 183 167 O________OP_O_ jtwc_sh SH321969 -19.70 166.60 25 -1 -19.70 166.60 TC 25 -19.68 166.60 1 23 -20.10 166.60 TC 15 5 182
1969 SP MM 15:00:00 TS -20.02 166.59 167 152 P________PP_P_ SH321969 -19.95 166.60 22 -1 -19.95 166.60 TC 22 -19.92 166.59 1 20 -20.35 166.60 TC 12 5 0
1969 SP MM 18:00:00 TS -20.25 166.59 143 133 O________OP_O_ jtwc_sh SH321969 -20.20 166.60 20 -1 -20.20 166.60 TC 20 -20.17 166.59 1 16 -20.60 166.60 TC 10 4 176
1969 SP MM 21:00:00 NR -20.43 166.59 133 113 __________P___ SH321969 -1 TC -20.43 166.59 1 12 TC 4 0
1969 SP MM 23:00:00 NR -20.60 166.60 113 __________O___ SH321969 -1 TC -20.60 166.60 1 10 TC 5 0